Time;durP1;ratioP1;P1;durP2;ratioP2;P2;SDS_P1;SDS_P2;PMS_P1;PMS_P2;Temp;Humidity;BMP_temperature;BMP_pressure;BME280_temperature;BME280_humidity;BME280_pressure;Samples;Min_cycle;Max_cycle;Signal;HPM_P1;HPM_P2
2020/12/11 00:01:58;;;;;;;13.83;10.40;;;4.30;1.00;;;;;;5079197;28;20814;-69
2020/12/11 00:04:25;;;;;;;13.80;9.90;;;4.30;99.90;;;;;;5092014;28;21020;-69
2020/12/11 00:06:51;;;;;;;16.87;10.80;;;4.20;99.90;;;;;;5078012;28;20477;-68
2020/12/11 00:09:18;;;;;;;15.67;11.00;;;4.30;99.90;;;;;;5082900;28;20448;-69
2020/12/11 00:11:44;;;;;;;18.93;11.17;;;4.40;99.90;;;;;;5090069;28;20437;-69
2020/12/11 00:14:10;;;;;;;17.07;11.63;;;4.40;20.90;;;;;;5080480;28;20441;-69
2020/12/11 00:16:38;;;;;;;14.17;10.27;;;4.30;99.90;;;;;;5081928;28;20804;-69
2020/12/11 00:19:04;;;;;;;17.50;11.20;;;4.20;99.90;;;;;;5084189;28;20525;-68
2020/12/11 00:21:39;;;;;;;19.30;11.60;;;4.30;1.00;;;;;;5072089;28;20487;-69
2020/12/11 00:24:05;;;;;;;12.70;9.40;;;4.30;99.90;;;;;;5079054;28;20527;-70
2020/12/11 00:26:32;;;;;;;13.43;10.70;;;4.40;25.60;;;;;;5084695;28;21059;-70
2020/12/11 00:28:58;;;;;;;16.63;11.07;;;4.30;85.80;;;;;;5087052;28;20702;-70
2020/12/11 00:31:25;;;;;;;15.60;11.37;;;4.20;99.90;;;;;;5084049;28;20476;-70
2020/12/11 00:33:52;;;;;;;14.13;10.80;;;4.30;99.90;;;;;;5077340;28;20529;-70
2020/12/11 00:36:18;;;;;;;14.90;9.90;;;4.00;99.90;;;;;;5082175;28;20932;-70
2020/12/11 00:38:46;;;;;;;17.73;11.33;;;4.10;99.90;;;;;;5087594;28;20528;-70
2020/12/11 00:41:12;;;;;;;14.57;10.00;;;4.10;1.00;;;;;;5076761;28;20524;-70
2020/12/11 00:43:39;;;;;;;13.27;9.60;;;4.10;99.90;;;;;;5083324;28;20445;-70
2020/12/11 00:46:05;;;;;;;12.53;10.37;;;3.90;99.90;;;;;;5089739;28;20480;-70
2020/12/11 00:48:32;;;;;;;12.67;9.90;;;4.00;99.90;;;;;;5078219;28;20440;-70
2020/12/11 00:50:58;;;;;;;13.17;10.13;;;4.10;99.90;;;;;;5077661;28;20450;-71
2020/12/11 00:53:25;;;;;;;13.43;10.47;;;3.90;4.00;;;;;;5085818;28;20475;-70
2020/12/11 00:55:52;;;;;;;11.33;9.00;;;3.90;90.70;;;;;;5079516;28;20526;-70
2020/12/11 00:58:19;;;;;;;12.80;9.57;;;4.00;99.90;;;;;;5075428;28;20782;-70
2020/12/11 01:00:45;;;;;;;10.77;8.70;;;4.20;57.90;;;;;;5071353;28;20532;-70
2020/12/11 01:03:12;;;;;;;12.43;8.53;;;4.20;1.00;;;;;;5089412;28;20476;-70
2020/12/11 01:05:39;;;;;;;12.20;8.50;;;4.00;1.00;;;;;;5081124;28;20493;-70
2020/12/11 01:08:06;;;;;;;12.50;8.60;;;4.00;1.00;;;;;;5081559;28;20480;-71
2020/12/11 01:10:32;;;;;;;11.67;9.70;;;3.90;1.00;;;;;;5086552;28;20941;-71
2020/12/11 01:13:00;;;;;;;11.80;8.77;;;4.00;1.00;;;;;;5086009;28;20520;-71
2020/12/11 01:15:26;;;;;;;12.27;9.33;;;3.90;1.00;;;;;;5075729;28;20473;-70
2020/12/11 01:17:53;;;;;;;9.83;8.27;;;3.90;1.00;;;;;;5084018;28;20527;-70
2020/12/11 01:20:19;;;;;;;10.03;7.57;;;3.80;1.00;;;;;;5076692;28;20516;-71
2020/12/11 01:22:46;;;;;;;10.83;8.90;;;3.90;1.00;;;;;;5073785;28;20543;-70
2020/12/11 01:25:12;;;;;;;10.13;7.93;;;3.90;99.90;;;;;;5078111;28;20473;-70
2020/12/11 01:27:38;;;;;;;11.20;8.37;;;3.80;99.90;;;;;;5087237;28;20546;-70
2020/12/11 01:30:06;;;;;;;10.43;8.90;;;3.80;1.00;;;;;;5077749;28;20525;-70
2020/12/11 01:32:32;;;;;;;13.00;9.73;;;3.90;1.00;;;;;;5076997;28;20443;-70
2020/12/11 01:34:59;;;;;;;11.73;9.20;;;3.80;99.90;;;;;;5081289;28;20453;-70
2020/12/11 01:37:26;;;;;;;9.93;7.93;;;3.60;99.90;;;;;;5089893;28;20520;-70
2020/12/11 01:39:52;;;;;;;13.77;8.77;;;3.70;99.90;;;;;;5078423;28;20941;-71
2020/12/11 01:42:19;;;;;;;11.63;9.13;;;3.60;1.00;;;;;;5082994;28;20519;-70
2020/12/11 01:44:49;;;;;;;11.53;8.30;;;3.60;1.00;;;;;;5083348;28;20451;-70
2020/12/11 01:47:16;;;;;;;10.77;8.53;;;3.80;99.90;;;;;;5084522;28;20517;-70
2020/12/11 01:49:43;;;;;;;10.10;8.50;;;3.70;1.00;;;;;;5076288;28;20445;-70
2020/12/11 01:52:09;;;;;;;11.20;8.20;;;3.70;99.90;;;;;;5085277;28;20455;-70
2020/12/11 01:54:36;;;;;;;9.93;8.90;;;3.60;99.90;;;;;;5087375;28;20524;-70
2020/12/11 01:57:05;;;;;;;12.77;8.57;;;3.50;1.00;;;;;;5074290;28;20520;-70
2020/12/11 01:59:36;;;;;;;12.43;8.47;;;3.50;1.00;;;;;;5077045;28;20520;-70
2020/12/11 02:02:04;;;;;;;11.50;8.40;;;3.60;99.90;;;;;;5072876;28;20454;-70
2020/12/11 02:04:33;;;;;;;11.50;7.80;;;3.60;99.90;;;;;;5078603;28;20532;-70
2020/12/11 02:07:00;;;;;;;12.47;9.07;;;3.40;1.00;;;;;;5077295;28;20959;-70
2020/12/11 02:09:28;;;;;;;14.03;9.10;;;3.30;99.90;;;;;;5083235;28;20535;-70
2020/12/11 02:11:54;;;;;;;11.73;7.97;;;3.40;31.90;;;;;;5088730;28;20943;-70
2020/12/11 02:14:21;;;;;;;10.20;8.10;;;3.60;99.90;;;;;;5079194;28;20950;-71
2020/12/11 02:16:47;;;;;;;10.57;8.50;;;3.50;38.40;;;;;;5079420;28;20875;-70
2020/12/11 02:19:14;;;;;;;8.60;7.00;;;3.50;1.00;;;;;;5083576;28;20438;-70
2020/12/11 02:21:41;;;;;;;12.07;8.90;;;3.20;99.90;;;;;;5069520;28;20542;-70
2020/12/11 02:24:08;;;;;;;11.20;8.77;;;3.20;1.00;;;;;;5078766;28;20854;-70
2020/12/11 02:26:34;;;;;;;10.37;7.53;;;3.40;1.00;;;;;;5087189;28;20575;-71
2020/12/11 02:29:00;;;;;;;12.70;8.83;;;3.50;99.90;;;;;;5086733;28;20532;-70
2020/12/11 02:31:27;;;;;;;10.80;8.47;;;3.50;99.90;;;;;;5073701;28;20476;-70
2020/12/11 02:33:53;;;;;;;12.13;9.07;;;3.50;99.90;;;;;;5083789;28;20447;-70
2020/12/11 02:36:21;;;;;;;10.53;9.43;;;3.30;99.90;;;;;;5090411;28;20501;-70
2020/12/11 02:38:48;;;;;;;12.20;10.00;;;3.20;1.00;;;;;;5089563;28;20443;-70
2020/12/11 02:41:15;;;;;;;11.23;8.30;;;3.30;1.00;;;;;;5079461;28;20578;-70
2020/12/11 02:43:41;;;;;;;13.27;9.30;;;3.30;99.90;;;;;;5086147;28;20534;-70
2020/12/11 02:46:07;;;;;;;13.10;9.70;;;3.40;99.90;;;;;;5091913;28;20637;-70
2020/12/11 02:48:34;;;;;;;11.60;9.37;;;3.30;99.90;;;;;;5080245;28;20502;-70
2020/12/11 02:51:01;;;;;;;12.10;9.00;;;3.30;99.90;;;;;;5080450;28;20451;-70
2020/12/11 02:53:27;;;;;;;13.00;9.43;;;3.40;99.90;;;;;;5088965;28;20486;-70
2020/12/11 02:55:58;;;;;;;10.90;8.27;;;3.30;99.90;;;;;;5081431;28;20528;-70
2020/12/11 02:58:24;;;;;;;12.63;10.00;;;3.40;99.90;;;;;;5082580;28;20443;-70
2020/12/11 03:00:51;;;;;;;15.90;10.23;;;3.20;1.00;;;;;;5072974;28;20488;-70
2020/12/11 03:03:17;;;;;;;9.87;8.20;;;3.10;1.00;;;;;;5092736;28;20523;-71
2020/12/11 03:05:44;;;;;;;12.70;9.87;;;3.20;1.00;;;;;;5081847;28;20579;-70
2020/12/11 03:08:10;;;;;;;12.80;10.30;;;3.10;1.00;;;;;;5085036;28;20523;-70
2020/12/11 03:10:36;;;;;;;14.20;9.63;;;3.00;1.00;;;;;;5087939;28;20448;-70
2020/12/11 03:13:03;;;;;;;13.17;9.60;;;2.90;13.50;;;;;;5071917;28;20440;-70
2020/12/11 03:15:30;;;;;;;10.27;8.33;;;2.90;36.40;;;;;;5078378;28;20541;-70
2020/12/11 03:17:56;;;;;;;12.77;8.83;;;2.80;99.90;;;;;;5078306;28;20436;-70
2020/12/11 03:20:23;;;;;;;13.80;10.30;;;2.80;99.90;;;;;;5079026;28;20447;-70
2020/12/11 03:22:51;;;;;;;12.63;8.97;;;2.60;99.90;;;;;;5076066;28;20449;-70
2020/12/11 03:25:18;;;;;;;15.07;10.87;;;2.70;1.00;;;;;;5080979;28;20564;-70
2020/12/11 03:27:44;;;;;;;16.53;9.70;;;2.70;99.90;;;;;;5089681;28;20448;-70
2020/12/11 03:30:12;;;;;;;12.90;9.27;;;2.50;1.00;;;;;;5079477;28;20602;-70
2020/12/11 03:32:39;;;;;;;14.47;8.83;;;2.50;1.00;;;;;;5081803;28;20563;-70
2020/12/11 03:35:06;;;;;;;14.50;10.60;;;2.70;1.00;;;;;;5083428;28;20522;-70
2020/12/11 03:37:32;;;;;;;12.40;9.30;;;2.60;1.00;;;;;;5092582;28;20523;-71
2020/12/11 03:39:58;;;;;;;15.57;10.83;;;2.60;1.00;;;;;;5081022;28;20532;-70
2020/12/11 03:42:25;;;;;;;16.67;10.70;;;2.50;1.00;;;;;;5085376;28;20958;-70
2020/12/11 03:44:51;;;;;;;13.30;9.30;;;2.50;1.00;;;;;;5086467;28;21005;-70
2020/12/11 03:47:18;;;;;;;13.20;9.37;;;2.50;1.00;;;;;;5086666;28;20863;-70
2020/12/11 03:49:45;;;;;;;15.63;10.67;;;2.40;1.00;;;;;;5078830;28;20564;-70
2020/12/11 03:52:11;;;;;;;14.80;10.73;;;2.60;1.00;;;;;;5087477;28;20452;-70
2020/12/11 03:54:38;;;;;;;13.77;11.00;;;2.70;1.00;;;;;;5089302;28;20753;-70
2020/12/11 03:57:04;;;;;;;15.60;11.70;;;2.60;1.00;;;;;;5077038;28;20538;-70
2020/12/11 03:59:30;;;;;;;17.63;11.20;;;2.60;1.00;;;;;;5080162;28;20446;-70
2020/12/11 04:01:57;;;;;;;13.37;10.33;;;2.60;1.00;;;;;;5080029;28;20523;-70
2020/12/11 04:04:24;;;;;;;15.30;10.47;;;2.90;1.00;;;;;;5092359;28;20553;-70
2020/12/11 04:06:50;;;;;;;16.27;11.70;;;2.80;1.00;;;;;;5078095;28;20516;-70
2020/12/11 04:09:17;;;;;;;17.10;10.33;;;2.80;99.90;;;;;;5083315;28;20469;-70
2020/12/11 04:11:43;;;;;;;14.97;10.63;;;2.90;99.90;;;;;;5090472;28;20528;-70
2020/12/11 04:14:10;;;;;;;13.30;10.33;;;2.90;99.90;;;;;;5080385;28;21034;-71
2020/12/11 04:16:36;;;;;;;16.90;10.67;;;2.80;99.90;;;;;;5082510;28;20864;-70
2020/12/11 04:19:02;;;;;;;17.80;10.80;;;2.70;1.00;;;;;;5083352;28;20520;-70
2020/12/11 04:21:30;;;;;;;17.57;10.97;;;3.00;99.90;;;;;;5071697;28;20484;-70
2020/12/11 04:23:56;;;;;;;16.10;10.67;;;3.00;99.90;;;;;;5077471;28;20438;-70
2020/12/11 04:26:23;;;;;;;14.60;10.33;;;2.80;99.90;;;;;;5084528;28;20593;-70
2020/12/11 04:28:49;;;;;;;17.07;12.00;;;2.80;99.90;;;;;;5086905;28;20520;-70
2020/12/11 04:31:19;;;;;;;17.60;12.30;;;2.70;99.90;;;;;;5085870;28;20801;-70
2020/12/11 04:33:45;;;;;;;19.50;12.10;;;2.70;1.00;;;;;;5080410;28;20468;-70
2020/12/11 04:36:16;;;;;;;17.07;10.87;;;2.70;99.90;;;;;;5087544;28;20475;-70
2020/12/11 04:38:46;;;;;;;18.87;11.87;;;2.50;1.00;;;;;;5088062;28;20429;-70
2020/12/11 04:41:14;;;;;;;17.00;10.73;;;2.40;1.00;;;;;;5076736;28;21005;-70
2020/12/11 04:43:41;;;;;;;16.57;11.67;;;2.50;1.00;;;;;;5083758;28;20440;-70
2020/12/11 04:46:08;;;;;;;17.67;11.70;;;2.30;1.00;;;;;;5089090;28;21032;-70
2020/12/11 04:48:34;;;;;;;18.90;10.60;;;2.30;1.00;;;;;;5076825;28;20479;-70
2020/12/11 04:51:02;;;;;;;20.80;12.67;;;2.10;1.00;;;;;;5077871;28;20437;-70
2020/12/11 04:53:33;;;;;;;19.07;11.87;;;2.00;1.00;;;;;;5086286;28;20441;-70
2020/12/11 04:56:02;;;;;;;18.80;12.80;;;2.00;1.00;;;;;;5090870;28;20536;-70
2020/12/11 04:58:30;;;;;;;18.70;12.60;;;1.90;1.00;;;;;;5080347;28;20535;-70
2020/12/11 05:01:02;;;;;;;22.37;12.23;;;1.90;21.10;;;;;;5063518;28;20444;-69
2020/12/11 05:03:30;;;;;;;21.60;13.50;;;2.00;1.00;;;;;;5081124;28;20531;-70
2020/12/11 05:05:57;;;;;;;16.80;11.83;;;2.00;1.00;;;;;;5078301;28;20519;-69
2020/12/11 05:08:23;;;;;;;18.87;12.07;;;2.00;1.00;;;;;;5077037;28;20437;-69
2020/12/11 05:10:50;;;;;;;15.77;11.40;;;2.10;1.00;;;;;;5069203;28;20527;-69
2020/12/11 05:13:19;;;;;;;17.43;11.87;;;2.10;1.00;;;;;;5070722;28;20449;-71
2020/12/11 05:16:05;;;;;;;19.07;12.33;;;2.10;1.00;;;;;;5077538;28;21031;-69
2020/12/11 05:18:32;;;;;;;18.40;11.10;;;2.10;1.00;;;;;;5075777;28;20441;-69
2020/12/11 05:21:13;;;;;;;21.53;12.53;;;2.20;1.00;;;;;;5072142;28;20438;-69
2020/12/11 05:23:57;;;;;;;18.40;12.83;;;2.10;1.00;;;;;;5074747;28;20430;-69
2020/12/11 05:26:24;;;;;;;17.87;11.70;;;2.10;99.90;;;;;;5076585;28;20472;-72
2020/12/11 05:28:52;;;;;;;16.13;11.10;;;2.00;1.00;;;;;;5075402;28;20882;-70
2020/12/11 05:31:18;;;;;;;20.40;11.50;;;;;;;;;;5073860;28;20469;-71
2020/12/11 05:34:04;;;;;;;19.37;11.70;;;2.00;1.00;;;;;;5077438;28;20442;-71
2020/12/11 05:36:43;;;;;;;18.70;11.40;;;2.10;99.90;;;;;;5070869;28;20767;-70
2020/12/11 05:39:09;;;;;;;21.40;12.80;;;2.10;99.90;;;;;;5072700;28;20525;-71
2020/12/11 05:41:37;;;;;;;18.40;12.70;;;2.20;1.00;;;;;;5075729;28;20536;-69
2020/12/11 05:44:23;;;;;;;19.07;12.53;;;2.30;1.00;;;;;;5076726;28;20516;-70
2020/12/11 05:46:49;;;;;;;24.47;15.10;;;1.90;1.00;;;;;;5072027;28;20559;-70
2020/12/11 05:49:22;;;;;;;20.10;14.07;;;;;;;;;;5074445;28;20526;-71
2020/12/11 05:51:53;;;;;;;19.47;12.07;;;;;;;;;;5077993;28;20802;-71
2020/12/11 05:54:21;;;;;;;21.27;12.97;;;;;;;;;;5073729;28;20441;-69
2020/12/11 05:56:48;;;;;;;22.10;12.20;;;;;;;;;;5065290;28;20536;-72
2020/12/11 05:59:16;;;;;;;23.53;13.97;;;;;;;;;;5077813;28;20532;-72
2020/12/11 06:01:42;;;;;;;25.50;13.03;;;;;;;;;;5070124;28;20999;-71
2020/12/11 06:04:11;;;;;;;19.80;12.47;;;;;;;;;;5094621;28;20455;-72
2020/12/11 06:06:38;;;;;;;19.40;11.80;;;;;;;;;;5082751;28;20470;-71
2020/12/11 06:09:04;;;;;;;19.37;11.57;;;;;;;;;;5084018;28;20877;-71
2020/12/11 06:11:35;;;;;;;22.40;12.43;;;;;;;;;;5093938;28;20447;-72
2020/12/11 06:14:03;;;;;;;16.07;10.57;;;;;;;;;;5083304;28;20440;-73
2020/12/11 06:16:32;;;;;;;16.17;11.57;;;;;;;;;;5085807;28;20869;-73
2020/12/11 06:19:00;;;;;;;21.37;11.80;;;;;;;;;;5083273;28;20739;-72
2020/12/11 06:21:27;;;;;;;21.77;13.20;;;;;;;;;;5063341;28;20933;-73
2020/12/11 06:23:54;;;;;;;19.03;11.10;;;;;;;;;;5080991;28;20887;-72
2020/12/11 06:26:21;;;;;;;20.60;12.07;;;;;;;;;;5088484;28;20512;-72
2020/12/11 06:28:49;;;;;;;17.53;12.50;;;;;;;;;;5089401;28;20530;-72
2020/12/11 06:31:16;;;;;;;21.23;12.07;;;;;;;;;;5077667;28;20444;-72
2020/12/11 06:33:44;;;;;;;22.50;12.47;;;;;;;;;;5083726;28;20475;-72
2020/12/11 06:36:11;;;;;;;20.40;11.50;;;;;;;;;;5090149;28;20455;-73
2020/12/11 06:38:45;;;;;;;18.60;11.60;;;;;;;;;;5092317;28;20451;-72
2020/12/11 06:41:12;;;;;;;22.13;12.77;;;;;;;;;;5079907;28;20450;-72
2020/12/11 06:43:40;;;;;;;18.00;11.43;;;;;;;;;;5088470;28;20527;-71
2020/12/11 06:46:13;;;;;;;18.50;12.03;;;;;;;;;;5092277;28;20557;-72
2020/12/11 06:48:59;;;;;;;18.93;11.50;;;;;;;;;;5080408;28;20519;-72
2020/12/11 06:51:26;;;;;;;17.70;10.63;;;;;;;;;;5085353;28;20527;-74
2020/12/11 06:53:53;;;;;;;14.67;10.67;;;;;;;;;;5092401;28;20810;-73
2020/12/11 06:56:35;;;;;;;20.30;11.13;;;;;;;;;;5081819;28;20527;-73
2020/12/11 06:59:16;;;;;;;19.00;11.20;;;;;;;;;;5072525;28;20523;-73
2020/12/11 07:01:43;;;;;;;20.93;11.27;;;;;;;;;;5068985;28;20530;-73
2020/12/11 07:04:09;;;;;;;16.77;10.10;;;;;;;;;;5092921;28;20527;-73
2020/12/11 07:06:37;;;;;;;18.63;11.53;;;;;;;;;;5080550;28;20834;-72
2020/12/11 07:09:04;;;;;;;17.27;10.90;;;;;;;;;;5080733;28;20516;-72
2020/12/11 07:11:30;;;;;;;18.47;10.53;;;;;;;;;;5090205;28;20949;-72
2020/12/11 07:13:57;;;;;;;16.43;10.27;;;;;;;;;;5077642;28;20528;-71
2020/12/11 07:16:24;;;;;;;15.90;10.30;;;;;;;;;;5082529;28;20483;-72
2020/12/11 07:18:51;;;;;;;18.43;11.27;;;;;;;;;;5083112;28;20445;-72
2020/12/11 07:21:18;;;;;;;17.47;10.73;;;;;;;;;;5072808;28;20845;-72
2020/12/11 07:23:46;;;;;;;22.63;12.60;;;;;;;;;;5076029;28;20452;-72
2020/12/11 07:26:14;;;;;;;19.00;12.53;;;;;;;;;;5085148;28;20566;-72
2020/12/11 07:28:40;;;;;;;18.27;10.70;;;;;;;;;;5088129;28;20444;-71
2020/12/11 07:31:11;;;;;;;19.07;11.53;;;;;;;;;;5087115;28;20521;-72
2020/12/11 07:33:38;;;;;;;19.13;10.60;;;;;;;;;;5080161;28;20445;-74
2020/12/11 07:36:05;;;;;;;13.53;9.60;;;;;;;;;;5087776;28;20527;-73
2020/12/11 07:38:33;;;;;;;17.27;9.97;;;;;;;;;;5090786;28;20466;-73
2020/12/11 07:41:05;;;;;;;19.00;10.90;;;;;;;;;;5076996;28;20690;-72
2020/12/11 07:43:31;;;;;;;15.70;9.57;;;;;;;;;;5083584;28;20483;-72
2020/12/11 07:45:58;;;;;;;17.20;11.47;;;;;;;;;;5089324;28;20491;-72
2020/12/11 07:48:25;;;;;;;18.47;11.60;;;;;;;;;;5079624;28;20532;-72
2020/12/11 07:50:51;;;;;;;18.90;11.30;;;;;;;;;;5078855;28;20442;-74
2020/12/11 07:53:19;;;;;;;19.30;11.27;;;;;;;;;;5086548;28;21002;-72
2020/12/11 07:55:46;;;;;;;18.67;10.63;;;;;;;;;;5080044;28;20992;-72
2020/12/11 07:58:13;;;;;;;18.90;9.27;;;;;;;;;;5079438;28;20441;-72
2020/12/11 08:00:40;;;;;;;16.93;10.90;;;;;;;;;;5072892;28;20481;-71
2020/12/11 08:03:08;;;;;;;17.27;10.93;;;;;;;;;;5089242;28;20443;-72
2020/12/11 08:05:38;;;;;;;18.57;11.57;;;;;;;;;;5059578;28;654727;-72
2020/12/11 08:08:06;;;;;;;15.77;10.80;;;;;;;;;;5078717;28;20611;-72
2020/12/11 08:10:43;;;;;;;14.30;10.10;;;;;;;;;;5084774;28;20482;-72
2020/12/11 08:13:11;;;;;;;16.40;9.47;;;;;;;;;;5072204;28;20445;-72
2020/12/11 08:15:39;;;;;;;13.93;9.73;;;;;;;;;;5077788;28;20844;-72
2020/12/11 08:18:14;;;;;;;17.27;11.37;;;1.70;1.00;;;;;;5087137;28;20433;-72
2020/12/11 08:20:47;;;;;;;16.17;9.80;;;2.90;99.90;;;;;;5075363;28;20519;-72
2020/12/11 08:23:17;;;;;;;16.23;9.77;;;2.70;1.00;;;;;;5075507;28;20450;-72
2020/12/11 08:25:44;;;;;;;17.73;11.20;;;2.20;1.00;;;;;;5082299;28;21004;-72
2020/12/11 08:28:10;;;;;;;19.27;11.07;;;2.20;99.90;;;;;;5089059;28;20527;-72
2020/12/11 08:30:37;;;;;;;18.43;10.80;;;2.30;99.90;;;;;;5077492;28;20528;-72
2020/12/11 08:33:10;;;;;;;16.47;11.30;;;2.30;99.90;;;;;;5077373;28;20472;-72
2020/12/11 08:35:36;;;;;;;15.90;10.60;;;2.30;99.90;;;;;;5086439;28;20508;-72
2020/12/11 08:38:05;;;;;;;16.70;11.27;;;2.10;99.90;;;;;;5090712;28;20856;-72
2020/12/11 08:40:44;;;;;;;19.10;10.50;;;2.30;99.90;;;;;;5080939;28;20517;-72
2020/12/11 08:43:15;;;;;;;15.67;10.50;;;2.20;99.90;;;;;;5081707;28;20524;-72
2020/12/11 08:45:52;;;;;;;15.70;10.73;;;2.40;1.00;;;;;;5089400;28;20440;-72
2020/12/11 08:48:30;;;;;;;20.00;12.40;;;2.50;99.90;;;;;;5079805;28;20844;-72
2020/12/11 08:50:59;;;;;;;17.00;9.50;;;3.10;1.00;;;;;;5070136;28;20442;-72
2020/12/11 08:53:28;;;;;;;21.37;10.90;;;3.00;1.00;;;;;;5087975;28;20535;-72
2020/12/11 08:55:54;;;;;;;17.80;10.60;;;3.10;1.00;;;;;;5078713;28;20954;-72
2020/12/11 08:58:21;;;;;;;16.17;9.73;;;3.10;1.00;;;;;;5081107;28;20459;-72
2020/12/11 09:00:48;;;;;;;14.83;10.53;;;2.90;1.00;;;;;;5071356;28;20444;-72
2020/12/11 09:03:14;;;;;;;14.50;9.40;;;3.00;41.20;;;;;;5089896;28;20551;-72
2020/12/11 09:05:41;;;;;;;16.30;11.17;;;3.20;1.00;;;;;;5079575;28;20564;-73
2020/12/11 09:08:08;;;;;;;17.17;10.20;;;3.20;99.90;;;;;;5083158;28;20595;-74
2020/12/11 09:10:34;;;;;;;16.60;9.10;;;3.30;1.00;;;;;;5086260;28;20531;-71
2020/12/11 09:13:00;;;;;;;16.70;9.83;;;3.20;99.90;;;;;;5085502;28;20528;-71
2020/12/11 09:15:27;;;;;;;16.03;9.73;;;3.00;1.00;;;;;;5075217;28;20529;-71
2020/12/11 09:17:54;;;;;;;16.40;10.50;;;3.10;1.00;;;;;;5084236;28;21003;-71
2020/12/11 09:20:20;;;;;;;14.07;9.10;;;3.00;18.10;;;;;;5076920;28;20473;-71
2020/12/11 09:22:47;;;;;;;14.97;9.87;;;3.20;1.00;;;;;;5074335;28;20963;-71
2020/12/11 09:25:13;;;;;;;17.77;10.87;;;3.40;99.90;;;;;;5077704;28;20461;-71
2020/12/11 09:27:42;;;;;;;15.70;10.07;;;3.30;99.90;;;;;;5087315;28;20571;-70
2020/12/11 09:30:16;;;;;;;16.10;10.63;;;3.30;99.90;;;;;;5077169;28;20560;-72
2020/12/11 09:32:54;;;;;;;13.47;9.57;;;3.20;9.10;;;;;;5076817;28;20441;-72
2020/12/11 09:35:24;;;;;;;14.17;9.57;;;3.10;1.00;;;;;;5082610;28;20994;-71
2020/12/11 09:37:50;;;;;;;17.23;9.87;;;;;;;;;;5089675;28;20527;-72
2020/12/11 09:40:18;;;;;;;15.57;9.03;;;;;;;;;;5080347;28;20436;-72
2020/12/11 09:43:09;;;;;;;15.33;10.73;;;;;;;;;;5081030;28;20444;-71
2020/12/11 09:45:38;;;;;;;16.77;11.17;;;;;;;;;;5077858;28;20527;-72
2020/12/11 09:48:16;;;;;;;16.60;10.00;;;;;;;;;;5079140;28;20446;-72
2020/12/11 09:50:52;;;;;;;14.67;9.30;;;;;;;;;;5080469;28;20440;-71
2020/12/11 09:53:30;;;;;;;13.90;9.40;;;3.20;1.00;;;;;;5086316;28;20443;-72
2020/12/11 09:56:02;;;;;;;15.60;9.27;;;3.80;60.60;;;;;;5077635;28;20442;-73
2020/12/11 09:58:28;;;;;;;13.43;8.93;;;3.90;1.00;;;;;;5077212;28;20442;-72
2020/12/11 10:00:54;;;;;;;14.83;8.70;;;3.90;56.90;;;;;;5069873;28;21013;-71
2020/12/11 10:03:23;;;;;;;17.30;9.30;;;3.80;99.90;;;;;;5083858;28;20473;-72
2020/12/11 10:05:50;;;;;;;10.40;7.70;;;3.90;99.90;;;;;;5072651;28;20878;-71
2020/12/11 10:08:16;;;;;;;12.70;9.00;;;3.90;70.40;;;;;;5083549;28;20970;-72
2020/12/11 10:10:43;;;;;;;15.27;8.63;;;4.10;99.00;;;;;;5085441;28;20437;-71
2020/12/11 10:13:09;;;;;;;11.40;8.63;;;4.20;1.00;;;;;;5085059;28;20524;-72
2020/12/11 10:15:35;;;;;;;13.10;8.20;;;4.30;99.90;;;;;;5075381;28;20438;-72
2020/12/11 10:18:04;;;;;;;12.07;8.00;;;4.30;1.00;;;;;;5085012;28;20574;-71
2020/12/11 10:20:30;;;;;;;13.17;8.00;;;4.20;99.90;;;;;;5075268;28;20852;-72
2020/12/11 10:22:58;;;;;;;14.67;8.53;;;4.20;1.00;;;;;;5061806;28;20527;-72
2020/12/11 10:25:25;;;;;;;13.37;9.50;;;4.30;1.00;;;;;;5077837;28;20441;-72
2020/12/11 10:27:52;;;;;;;12.83;9.07;;;4.40;99.90;;;;;;5087222;28;20840;-71
2020/12/11 10:30:18;;;;;;;14.60;8.80;;;4.10;99.90;;;;;;5075495;28;20491;-71
2020/12/11 10:32:45;;;;;;;16.57;8.37;;;4.00;1.00;;;;;;5076033;28;20444;-73
2020/12/11 10:35:11;;;;;;;13.17;8.60;;;4.10;99.90;;;;;;5080552;28;20528;-74
2020/12/11 10:37:39;;;;;;;14.40;7.53;;;4.10;1.00;;;;;;5089640;28;20475;-74
2020/12/11 10:40:06;;;;;;;11.90;8.17;;;4.20;1.00;;;;;;5078809;28;20441;-73
2020/12/11 10:42:33;;;;;;;11.80;7.90;;;4.20;1.00;;;;;;5081807;28;20523;-73
2020/12/11 10:44:59;;;;;;;11.53;6.80;;;4.20;1.00;;;;;;5083062;28;20525;-73
2020/12/11 10:47:26;;;;;;;11.03;7.67;;;4.10;99.90;;;;;;5086380;28;21062;-73
2020/12/11 10:49:52;;;;;;;11.83;7.90;;;4.40;1.00;;;;;;5079025;28;20531;-73
2020/12/11 10:52:20;;;;;;;11.77;7.77;;;4.50;1.00;;;;;;5087888;28;20538;-73
2020/12/11 10:54:46;;;;;;;10.83;7.70;;;4.50;99.90;;;;;;5087555;28;20444;-73
2020/12/11 10:57:13;;;;;;;10.53;7.10;;;4.50;1.00;;;;;;5077253;28;20973;-71
2020/12/11 10:59:40;;;;;;;12.00;8.00;;;4.40;1.00;;;;;;5080030;28;20856;-73
2020/12/11 11:02:07;;;;;;;9.53;7.40;;;4.50;99.90;;;;;;5082852;28;20523;-71
2020/12/11 11:04:33;;;;;;;12.67;7.40;;;4.50;1.00;;;;;;5092088;28;20999;-73
2020/12/11 11:07:02;;;;;;;13.73;8.80;;;4.40;1.00;;;;;;5078800;28;20793;-72
2020/12/11 11:09:34;;;;;;;11.10;8.33;;;4.40;1.00;;;;;;5086417;28;20448;-71
2020/12/11 11:12:08;;;;;;;11.50;7.73;;;4.60;1.00;;;;;;5091489;28;20528;-72
2020/12/11 11:20:29;;;;;;;11.10;8.00;;;4.40;1.00;;;;;;5044296;28;20442;-71
2020/12/11 11:23:03;;;;;;;12.30;8.57;;;4.40;99.90;;;;;;5076547;28;20463;-71
2020/12/11 11:25:49;;;;;;;15.20;7.83;;;4.20;99.90;;;;;;5082733;28;20444;-71
2020/12/11 11:28:15;;;;;;;10.50;6.50;;;4.30;1.00;;;;;;5091157;28;20447;-73
2020/12/11 11:30:42;;;;;;;13.03;8.10;;;4.30;1.00;;;;;;5078181;28;20448;-71
2020/12/11 11:33:09;;;;;;;12.00;7.97;;;4.30;1.00;;;;;;5080286;28;21029;-71
2020/12/11 11:35:35;;;;;;;15.57;7.60;;;4.40;99.90;;;;;;5089082;28;20519;-72
2020/12/11 11:38:06;;;;;;;16.40;7.47;;;4.50;10.10;;;;;;5079826;28;20551;-72
2020/12/11 11:40:32;;;;;;;13.03;7.30;;;4.60;11.30;;;;;;5082484;28;20506;-71
2020/12/11 11:42:58;;;;;;;10.93;7.70;;;4.70;55.00;;;;;;5082061;28;20525;-71
2020/12/11 11:45:26;;;;;;;16.30;8.00;;;4.70;99.90;;;;;;5078945;28;20527;-73
2020/12/11 11:47:55;;;;;;;12.73;8.27;;;4.70;99.90;;;;;;5081259;28;20564;-72
2020/12/11 11:50:37;;;;;;;18.47;8.17;;;4.40;99.90;;;;;;5084655;28;20551;-72
2020/12/11 11:53:05;;;;;;;12.83;8.20;;;4.30;1.00;;;;;;5082852;28;20468;-72
2020/12/11 11:55:32;;;;;;;11.70;7.93;;;4.30;1.00;;;;;;5083383;28;20441;-72
2020/12/11 11:57:58;;;;;;;14.23;8.57;;;4.40;1.00;;;;;;5079316;28;20856;-72
2020/12/11 12:00:25;;;;;;;12.20;8.87;;;4.40;99.90;;;;;;5077160;28;20486;-72
2020/12/11 12:02:51;;;;;;;16.27;8.53;;;4.40;1.00;;;;;;5087819;28;20468;-72
2020/12/11 12:05:19;;;;;;;11.50;7.20;;;4.40;1.00;;;;;;5085764;28;20546;-72
2020/12/11 12:07:45;;;;;;;14.43;8.10;;;4.40;1.00;;;;;;5081182;28;20567;-72
2020/12/11 12:10:12;;;;;;;13.87;8.77;;;4.50;1.00;;;;;;5088047;28;21050;-72
2020/12/11 12:12:40;;;;;;;11.40;7.80;;;4.50;99.90;;;;;;5090482;28;20559;-72
2020/12/11 12:15:10;;;;;;;14.63;9.07;;;4.50;99.90;;;;;;5076819;28;21046;-72
2020/12/11 12:17:39;;;;;;;12.00;8.00;;;4.60;1.00;;;;;;5085042;28;20855;-72
2020/12/11 12:20:09;;;;;;;13.87;8.97;;;4.60;99.90;;;;;;5081195;28;20460;-73
2020/12/11 12:28:33;;;;;;;13.63;9.57;;;4.90;1.00;;;;;;5089663;28;20503;-72
2020/12/11 12:30:59;;;;;;;14.87;8.87;;;4.70;1.00;;;;;;5062370;28;20499;-72
2020/12/11 12:36:43;;;;;;;13.10;8.40;;;4.70;99.90;;;;;;5088142;28;20432;-72
2020/12/11 12:44:39;;;;;;;13.03;8.87;;;5.10;1.00;;;;;;5085706;28;20432;-72
2020/12/11 12:47:06;;;;;;;11.53;8.00;;;5.50;99.90;;;;;;5071348;28;20477;-72
2020/12/11 12:49:32;;;;;;;11.47;7.90;;;5.40;1.00;;;;;;5077054;28;20870;-72
2020/12/11 12:51:59;;;;;;;13.07;8.40;;;5.20;1.00;;;;;;5085902;28;20449;-72
2020/12/11 12:54:26;;;;;;;10.50;7.67;;;5.10;1.00;;;;;;5088985;28;21007;-72
2020/12/11 12:56:54;;;;;;;13.40;8.77;;;5.40;1.00;;;;;;5075763;28;20438;-72
2020/12/11 12:59:30;;;;;;;13.93;9.00;;;5.50;32.60;;;;;;5078540;28;20449;-72
2020/12/11 13:02:13;;;;;;;13.90;7.87;;;5.30;99.90;;;;;;5078613;28;20940;-72
2020/12/11 13:04:40;;;;;;;11.80;7.77;;;5.40;1.00;;;;;;5088784;28;21261;-72
2020/12/11 13:07:07;;;;;;;12.80;8.23;;;5.30;99.90;;;;;;5076741;28;20469;-72
2020/12/11 13:09:35;;;;;;;11.30;8.10;;;5.60;99.90;;;;;;5089616;28;20544;-72
2020/12/11 13:12:01;;;;;;;13.57;7.03;;;5.70;99.90;;;;;;5096652;28;20474;-72
2020/12/11 13:14:28;;;;;;;14.77;8.40;;;5.50;99.90;;;;;;5078653;28;20436;-72
2020/12/11 13:16:54;;;;;;;11.33;8.07;;;5.60;99.90;;;;;;5078125;28;20536;-72
2020/12/11 13:19:23;;;;;;;18.37;8.90;;;5.50;1.00;;;;;;5083611;28;20491;-72
2020/12/11 13:22:02;;;;;;;13.77;8.93;;;5.30;1.00;;;;;;5069862;28;20489;-72
2020/12/11 13:27:21;;;;;;;12.70;8.47;;;5.50;99.90;;;;;;5080849;28;20524;-72
2020/12/11 13:29:48;;;;;;;13.90;7.23;;;5.30;1.00;;;;;;5080038;28;20437;-72
2020/12/11 13:32:14;;;;;;;12.27;8.97;;;5.40;99.90;;;;;;5078734;28;20532;-73
2020/12/11 13:34:41;;;;;;;13.10;7.20;;;5.40;99.90;;;;;;5082439;28;20758;-71